createdAt,value
2022-08-11T00:01:05.896Z,30.88
2022-08-11T00:03:42.390Z,31.16
2022-08-11T00:06:14.182Z,31.51
2022-08-11T00:08:42.197Z,31.12
2022-08-11T00:11:10.095Z,31.33
2022-08-11T00:13:39.574Z,31.64
2022-08-11T00:16:17.763Z,31.23
2022-08-11T00:18:47.277Z,31.31
2022-08-11T00:21:15.519Z,31.21
2022-08-11T00:23:47.242Z,30.97
2022-08-11T00:26:15.398Z,31.30
2022-08-11T00:28:43.331Z,31.36
2022-08-11T00:31:36.863Z,31.01
2022-08-11T00:34:06.887Z,30.87
2022-08-11T00:36:47.311Z,31.15
2022-08-11T00:39:16.115Z,31.09
2022-08-11T00:42:02.245Z,31.37
2022-08-11T00:44:48.387Z,30.75
2022-08-11T00:47:24.730Z,31.23
2022-08-11T00:50:10.327Z,31.29
2022-08-11T00:52:40.692Z,30.86
2022-08-11T00:55:11.067Z,31.09
2022-08-11T00:57:59.797Z,31.22
2022-08-11T01:00:32.410Z,31.15
2022-08-11T01:03:18.382Z,30.94
2022-08-11T01:05:45.704Z,31.24
2022-08-11T01:08:31.816Z,31.13
2022-08-11T01:11:25.302Z,31.04
2022-08-11T01:13:58.500Z,30.94
2022-08-11T01:16:44.336Z,30.85
2022-08-11T01:19:30.199Z,31.16
2022-08-11T01:21:58.082Z,30.88
2022-08-11T01:24:44.261Z,31.27
2022-08-11T01:27:20.804Z,30.72
2022-08-11T01:30:07.053Z,30.97
2022-08-11T01:32:37.237Z,31.21
2022-08-11T01:35:07.727Z,30.96
2022-08-11T01:37:53.600Z,30.89
2022-08-11T01:40:31.652Z,30.73
2022-08-11T01:43:29.659Z,30.78
2022-08-11T01:45:59.696Z,31.06
2022-08-11T01:48:35.976Z,31.11
2022-08-11T01:51:08.976Z,30.89
2022-08-11T01:53:44.481Z,31.30
2022-08-11T01:56:20.828Z,31.29
2022-08-11T01:59:07.276Z,30.62
2022-08-11T02:01:41.309Z,30.82
2022-08-11T02:04:27.431Z,31.16
2022-08-11T02:07:10.197Z,30.78
2022-08-11T02:09:51.825Z,30.60
2022-08-11T02:12:29.141Z,30.83
2022-08-11T02:15:09.418Z,30.96
2022-08-11T02:17:55.474Z,30.95
2022-08-11T02:20:46.351Z,31.04
2022-08-11T02:24:03.984Z,30.83
2022-08-11T02:26:49.030Z,31.08
2022-08-11T02:29:17.076Z,30.76
2022-08-11T02:32:28.631Z,30.54
2022-08-11T02:35:16.065Z,30.33
2022-08-11T02:37:48.574Z,30.63
2022-08-11T02:40:21.071Z,30.80
2022-08-11T02:42:48.657Z,30.88
2022-08-11T02:45:28.869Z,30.69
2022-08-11T02:48:21.404Z,30.56
2022-08-11T02:50:57.568Z,30.71
2022-08-11T02:53:44.543Z,30.62
2022-08-11T02:56:23.033Z,31.05
2022-08-11T02:59:10.152Z,31.05
2022-08-11T03:01:53.360Z,30.73
2022-08-11T03:04:48.249Z,30.61
2022-08-11T03:07:35.150Z,31.05
2022-08-11T03:10:11.395Z,31.01
2022-08-11T03:13:08.375Z,30.40
2022-08-11T03:16:23.573Z,30.33
2022-08-11T03:18:56.374Z,30.66
2022-08-11T03:22:01.605Z,30.31
2022-08-11T03:24:26.461Z,29.93
2022-08-11T03:27:03.082Z,30.28
2022-08-11T03:29:34.275Z,30.25
2022-08-11T03:32:03.351Z,30.08
2022-08-11T03:34:32.468Z,30.33
2022-08-11T03:37:16.485Z,29.99
2022-08-11T03:40:05.687Z,30.48
2022-08-11T03:42:51.532Z,30.36
2022-08-11T03:45:22.062Z,30.29
2022-08-11T03:47:58.777Z,30.04
2022-08-11T03:50:34.707Z,30.03
2022-08-11T03:53:18.052Z,30.22
2022-08-11T03:55:51.476Z,29.87
2022-08-11T03:58:41.716Z,30.15
2022-08-11T04:01:18.619Z,30.37
2022-08-11T04:03:47.071Z,30.04
2022-08-11T04:06:14.285Z,30.04
2022-08-11T04:09:00.189Z,30.42
2022-08-11T04:11:33.473Z,30.56
2022-08-11T04:14:34.541Z,29.86
2022-08-11T04:17:22.711Z,29.70
2022-08-11T04:20:02.348Z,29.64
2022-08-11T04:22:29.605Z,29.60
2022-08-11T04:24:56.786Z,29.63
2022-08-11T04:27:51.434Z,29.81
2022-08-11T04:30:27.843Z,29.43
2022-08-11T04:33:14.088Z,29.15
2022-08-11T04:35:48.629Z,29.55
2022-08-11T04:38:37.786Z,29.17
2022-08-11T04:41:28.052Z,30.63
2022-08-11T04:44:24.201Z,30.88
2022-08-11T04:46:54.246Z,30.88
2022-08-11T04:49:58.921Z,31.23
2022-08-11T04:52:51.104Z,30.00
2022-08-11T04:55:39.899Z,29.62
2022-08-11T04:58:46.015Z,29.34
2022-08-11T05:01:36.555Z,29.68
2022-08-11T05:04:32.258Z,29.18
2022-08-11T05:07:05.494Z,29.62
2022-08-11T05:09:51.585Z,29.39
2022-08-11T05:12:20.286Z,29.94
2022-08-11T05:15:10.323Z,29.75
2022-08-11T05:18:18.396Z,29.92
2022-08-11T05:21:24.981Z,30.10
2022-08-11T05:24:14.867Z,29.46
2022-08-11T05:27:08.741Z,29.86
2022-08-11T05:30:03.068Z,29.75
2022-08-11T05:32:56.944Z,30.49
2022-08-11T05:36:00.756Z,30.21
2022-08-11T05:38:45.436Z,30.99
2022-08-11T05:41:31.876Z,30.69
2022-08-11T05:44:20.125Z,30.93
2022-08-11T05:47:08.192Z,30.52
2022-08-11T05:49:54.858Z,31.07
2022-08-11T05:52:43.568Z,30.86
2022-08-11T05:55:34.387Z,30.89
2022-08-11T05:58:11.193Z,30.80
2022-08-11T06:00:42.859Z,30.34
2022-08-11T06:03:11.096Z,30.48
2022-08-11T06:05:43.521Z,30.36
2022-08-11T06:08:15.156Z,29.92
2022-08-11T06:10:44.171Z,30.43
2022-08-11T06:13:15.466Z,30.45
2022-08-11T06:15:47.330Z,29.68
2022-08-11T06:18:15.668Z,29.63
2022-08-11T06:20:47.324Z,29.86
2022-08-11T06:23:18.860Z,30.10
2022-08-11T06:25:47.393Z,29.45
2022-08-11T06:28:20.373Z,28.72
2022-08-11T06:30:49.171Z,28.48
2022-08-11T06:33:19.292Z,28.88
2022-08-11T06:36:01.915Z,28.56
2022-08-11T06:38:52.596Z,28.63
2022-08-11T06:41:45.952Z,29.12
2022-08-11T06:44:13.660Z,28.42
2022-08-11T06:46:42.722Z,28.68
2022-08-11T06:49:31.279Z,28.76
2022-08-11T06:52:34.700Z,28.58
2022-08-11T06:55:12.600Z,28.64
2022-08-11T06:58:14.842Z,28.59
2022-08-11T07:00:42.553Z,29.16
2022-08-11T07:03:15.952Z,28.47
2022-08-11T07:05:53.114Z,28.71
2022-08-11T07:09:17.232Z,28.59
2022-08-11T07:12:03.197Z,28.66
2022-08-11T07:14:49.673Z,28.45
2022-08-11T07:17:19.958Z,28.86
2022-08-11T07:20:16.976Z,28.52
2022-08-11T07:23:08.158Z,29.31
2022-08-11T07:25:57.562Z,28.98
2022-08-11T07:28:45.144Z,29.00
2022-08-11T07:31:15.378Z,28.64
2022-08-11T07:34:08.455Z,29.08
2022-08-11T07:36:42.931Z,28.83
2022-08-11T07:39:15.578Z,28.46
2022-08-11T07:41:43.302Z,28.97
2022-08-11T07:44:11.746Z,28.39
2022-08-11T07:46:59.201Z,28.36
2022-08-11T07:49:48.004Z,28.41
2022-08-11T07:52:31.082Z,28.38
2022-08-11T07:55:03.477Z,28.22
2022-08-11T07:58:15.733Z,28.25
2022-08-11T08:01:10.154Z,28.66
2022-08-11T08:04:02.964Z,28.18
2022-08-11T08:06:51.389Z,28.13
2022-08-11T08:09:38.639Z,28.72
2022-08-11T08:12:25.903Z,28.62
2022-08-11T08:15:12.944Z,28.45
2022-08-11T08:18:09.697Z,28.31
2022-08-11T08:20:46.385Z,28.37
2022-08-11T08:23:13.956Z,28.61
2022-08-11T08:25:42.470Z,28.28
2022-08-11T08:28:14.210Z,28.60
2022-08-11T08:30:49.587Z,29.05
2022-08-11T08:33:21.363Z,29.03
2022-08-11T08:35:54.749Z,29.28
2022-08-11T08:38:24.364Z,29.11
2022-08-11T08:40:55.636Z,28.61
2022-08-11T08:43:24.461Z,28.16
2022-08-11T08:45:54.011Z,28.53
2022-08-11T08:48:23.899Z,28.82
2022-08-11T08:51:15.486Z,29.15
2022-08-11T08:53:52.395Z,29.09
2022-08-11T08:56:28.498Z,29.06
2022-08-11T08:58:58.199Z,28.85
2022-08-11T09:01:27.413Z,28.89
2022-08-11T09:04:06.968Z,28.38
2022-08-11T09:06:39.979Z,28.82
2022-08-11T09:09:12.259Z,28.92
2022-08-11T09:11:55.567Z,29.00
2022-08-11T09:14:24.899Z,28.78
2022-08-11T09:16:52.874Z,28.70
2022-08-11T09:19:21.249Z,28.87
2022-08-11T09:22:22.672Z,28.47
2022-08-11T09:25:10.250Z,29.33
2022-08-11T09:27:40.090Z,29.12
2022-08-11T09:30:19.608Z,28.76
2022-08-11T09:32:47.146Z,29.23
2022-08-11T09:35:14.637Z,29.05
2022-08-11T09:38:00.406Z,29.12
2022-08-11T09:40:30.855Z,29.62
2022-08-11T09:43:17.557Z,29.00
2022-08-11T09:45:51.471Z,28.67
2022-08-11T09:48:23.611Z,29.30
2022-08-11T09:50:52.254Z,29.33
2022-08-11T09:53:35.728Z,29.23
2022-08-11T09:56:25.948Z,28.80
2022-08-11T09:58:53.464Z,28.96
2022-08-11T10:01:28.290Z,29.48
2022-08-11T10:03:58.929Z,29.00
2022-08-11T10:06:46.773Z,29.18
2022-08-11T10:09:18.182Z,29.27
2022-08-11T10:11:57.818Z,29.34
2022-08-11T10:14:45.431Z,29.13
2022-08-11T10:17:14.771Z,29.56
2022-08-11T10:19:43.438Z,29.12
2022-08-11T10:22:32.946Z,29.39
2022-08-11T10:25:19.994Z,29.50
2022-08-11T10:28:28.747Z,29.31
2022-08-11T10:31:00.186Z,29.64
2022-08-11T10:33:59.438Z,29.50
2022-08-11T10:36:28.743Z,29.59
2022-08-11T10:38:57.728Z,29.86
2022-08-11T10:42:08.247Z,29.96
2022-08-11T10:44:39.680Z,29.48
2022-08-11T10:47:26.631Z,29.55
2022-08-11T10:50:12.885Z,29.67
2022-08-11T10:52:58.914Z,30.31
2022-08-11T10:55:45.262Z,30.04
2022-08-11T10:58:31.234Z,30.45
2022-08-11T11:01:00.729Z,30.13
2022-08-11T11:03:29.122Z,29.97
2022-08-11T11:06:27.261Z,30.59
2022-08-11T11:08:57.634Z,30.62
2022-08-11T11:11:47.357Z,29.98
2022-08-11T11:14:35.546Z,30.09
2022-08-11T11:17:14.081Z,30.68
2022-08-11T11:19:42.365Z,30.66
2022-08-11T11:22:29.214Z,31.22
2022-08-11T11:25:16.787Z,31.05
2022-08-11T11:28:05.353Z,31.61
2022-08-11T11:30:52.844Z,31.36
2022-08-11T11:33:25.252Z,31.21
2022-08-11T11:36:02.023Z,31.46
2022-08-11T11:38:29.917Z,31.13
2022-08-11T11:41:15.784Z,31.21
2022-08-11T11:43:44.043Z,31.12
2022-08-11T11:46:11.429Z,31.33
2022-08-11T11:48:39.543Z,31.14
2022-08-11T11:51:06.964Z,31.44
2022-08-11T11:53:35.159Z,31.65
2022-08-11T11:56:03.385Z,31.53
2022-08-11T11:58:49.711Z,32.06
2022-08-11T12:01:17.651Z,31.73
2022-08-11T12:03:46.519Z,31.52
2022-08-11T12:06:16.751Z,30.96
2022-08-11T12:08:44.958Z,31.10
2022-08-11T12:11:31.343Z,30.67
2022-08-11T12:14:00.629Z,30.76
2022-08-11T12:16:33.230Z,30.53
2022-08-11T12:19:08.251Z,30.48
2022-08-11T12:21:37.333Z,30.75
2022-08-11T12:24:29.374Z,30.37
2022-08-11T12:27:17.709Z,30.11
2022-08-11T12:29:51.394Z,30.01
2022-08-11T12:32:23.397Z,30.16
2022-08-11T12:34:50.809Z,30.22
2022-08-11T12:37:23.711Z,29.85
2022-08-11T12:40:42.667Z,29.91
2022-08-11T12:43:38.626Z,30.01
2022-08-11T12:46:08.221Z,30.35
2022-08-11T12:48:58.358Z,30.07
2022-08-11T12:52:01.619Z,30.08
2022-08-11T12:54:42.551Z,30.06
2022-08-11T12:57:38.097Z,29.56
2022-08-11T13:00:25.170Z,29.20
2022-08-11T13:03:12.782Z,29.60
2022-08-11T13:05:44.525Z,30.21
2022-08-11T13:08:16.703Z,30.20
2022-08-11T13:11:03.706Z,30.03
2022-08-11T13:13:55.180Z,29.85
2022-08-11T13:16:20.760Z,30.56
2022-08-11T13:18:50.298Z,30.33
2022-08-11T13:21:20.779Z,30.97
2022-08-11T13:23:59.611Z,30.19
2022-08-11T13:26:47.609Z,30.08
2022-08-11T13:29:18.684Z,30.26
2022-08-11T13:31:56.164Z,30.15
2022-08-11T13:34:25.338Z,30.36
2022-08-11T13:36:54.297Z,30.31
2022-08-11T13:39:24.547Z,30.82
2022-08-11T13:41:55.550Z,30.90
2022-08-11T13:44:26.043Z,30.85
2022-08-11T13:46:56.478Z,30.82
2022-08-11T13:49:24.457Z,30.38
2022-08-11T13:51:52.579Z,30.72
2022-08-11T13:54:22.247Z,30.53
2022-08-11T13:56:52.947Z,30.89
2022-08-11T13:59:24.082Z,31.09
2022-08-11T14:02:19.443Z,31.00
2022-08-11T14:04:51.988Z,31.38
2022-08-11T14:07:22.340Z,31.27
2022-08-11T14:09:55.590Z,31.19
2022-08-11T14:12:45.044Z,30.90
2022-08-11T14:15:22.790Z,31.50
2022-08-11T14:18:10.348Z,30.88
2022-08-11T14:20:59.009Z,30.92
2022-08-11T14:23:31.372Z,31.24
2022-08-11T14:26:18.350Z,31.20
2022-08-11T14:28:46.489Z,30.82
2022-08-11T14:31:15.137Z,30.57
2022-08-11T14:33:59.367Z,30.23
2022-08-11T14:36:34.116Z,30.43
2022-08-11T14:39:03.578Z,31.10
2022-08-11T14:42:11.635Z,30.52
2022-08-11T14:44:56.629Z,30.95
2022-08-11T14:47:25.543Z,30.58
2022-08-11T14:50:09.345Z,31.00
2022-08-11T14:52:41.276Z,30.46
2022-08-11T14:55:27.606Z,30.78
2022-08-11T14:57:57.101Z,30.61
2022-08-11T15:00:25.105Z,30.20
2022-08-11T15:03:13.220Z,30.77
2022-08-11T15:05:56.616Z,31.04
2022-08-11T15:08:52.293Z,30.96
2022-08-11T15:11:40.444Z,30.42
2022-08-11T15:14:08.886Z,30.61
2022-08-11T15:17:01.575Z,30.75
2022-08-11T15:19:30.099Z,30.69
2022-08-11T15:22:28.504Z,30.53
2022-08-11T15:24:58.109Z,31.12
2022-08-11T15:27:44.771Z,31.10
2022-08-11T15:30:32.990Z,31.21
2022-08-11T15:33:25.293Z,31.18
2022-08-11T15:36:13.056Z,30.24
2022-08-11T15:38:42.883Z,30.16
2022-08-11T15:41:32.192Z,30.20
2022-08-11T15:44:19.614Z,29.91
2022-08-11T15:46:53.779Z,29.76
2022-08-11T15:49:25.027Z,29.45
2022-08-11T15:52:18.147Z,29.91
2022-08-11T15:54:49.389Z,30.28
2022-08-11T15:57:39.821Z,29.80
2022-08-11T16:00:26.704Z,29.88
2022-08-11T16:02:57.739Z,30.06
2022-08-11T16:05:45.692Z,29.35
2022-08-11T16:08:16.361Z,30.10
2022-08-11T16:10:51.391Z,30.29
2022-08-11T16:13:22.603Z,29.42
2022-08-11T16:16:10.264Z,29.54
2022-08-11T16:18:57.052Z,29.89
2022-08-11T16:21:35.027Z,29.50
2022-08-11T16:24:08.271Z,29.90
2022-08-11T16:27:11.607Z,30.31
2022-08-11T16:29:26.256Z,29.46
2022-08-11T16:32:13.520Z,29.66
2022-08-11T16:35:00.517Z,29.28
2022-08-11T16:37:46.902Z,29.25
2022-08-11T16:40:16.184Z,29.67
2022-08-11T16:43:10.737Z,29.99
2022-08-11T16:45:59.650Z,30.24
2022-08-11T16:48:38.203Z,30.48
2022-08-11T16:51:07.328Z,30.29
2022-08-11T16:54:03.497Z,29.79
2022-08-11T16:56:25.315Z,30.11
2022-08-11T16:59:16.351Z,29.75
2022-08-11T17:01:47.193Z,30.06
2022-08-11T17:04:39.309Z,30.25
2022-08-11T17:07:41.988Z,30.13
2022-08-11T17:10:52.046Z,30.14
2022-08-11T17:13:24.080Z,30.07
2022-08-11T17:16:07.094Z,30.61
2022-08-11T17:18:41.391Z,30.61
2022-08-11T17:21:20.149Z,30.18
2022-08-11T17:23:52.057Z,30.33
2022-08-11T17:26:19.360Z,30.14
2022-08-11T17:28:51.490Z,30.59
2022-08-11T17:31:41.325Z,30.31
2022-08-11T17:34:27.579Z,30.55
2022-08-11T17:36:56.292Z,29.84
2022-08-11T17:39:25.527Z,29.96
2022-08-11T17:42:11.850Z,30.25
2022-08-11T17:44:59.038Z,29.36
2022-08-11T17:47:45.668Z,30.18
2022-08-11T17:50:17.592Z,30.51
2022-08-11T17:53:04.638Z,30.07
2022-08-11T17:55:53.637Z,30.61
2022-08-11T17:58:40.178Z,30.82
2022-08-11T18:01:10.664Z,31.03
2022-08-11T18:03:40.895Z,31.53
2022-08-11T18:06:12.864Z,31.27
2022-08-11T18:09:03.819Z,30.75
2022-08-11T18:12:07.426Z,30.76
2022-08-11T18:14:57.618Z,30.70
2022-08-11T18:17:43.643Z,30.62
2022-08-11T18:20:29.535Z,30.46
2022-08-11T18:23:16.581Z,30.72
2022-08-11T18:26:07.464Z,30.20
2022-08-11T18:29:02.162Z,30.51
2022-08-11T18:31:51.137Z,30.81
2022-08-11T18:34:40.254Z,30.76
2022-08-11T18:37:29.571Z,30.55
2022-08-11T18:40:17.411Z,30.99
2022-08-11T18:43:06.028Z,31.10
2022-08-11T18:46:06.090Z,31.06
2022-08-11T18:48:55.020Z,30.98
2022-08-11T18:51:42.187Z,31.07
2022-08-11T18:54:29.929Z,31.09
2022-08-11T18:57:19.188Z,31.01
2022-08-11T19:00:06.251Z,31.17
2022-08-11T19:02:54.128Z,30.61
2022-08-11T19:06:35.688Z,30.47
2022-08-11T19:08:48.772Z,30.94
2022-08-11T19:11:40.349Z,30.28
2022-08-11T19:14:31.208Z,30.23
2022-08-11T19:17:44.714Z,30.23
2022-08-11T19:20:26.937Z,30.24
2022-08-11T19:23:14.206Z,29.75
2022-08-11T19:26:02.191Z,30.57
2022-08-11T19:28:48.371Z,30.57
2022-08-11T19:31:34.724Z,30.45
2022-08-11T19:34:21.624Z,29.92
2022-08-11T19:37:07.469Z,30.21
2022-08-11T19:39:53.903Z,29.80
2022-08-11T19:42:40.754Z,30.23
2022-08-11T19:45:27.188Z,29.74
2022-08-11T19:48:31.122Z,30.40
2022-08-11T19:51:21.388Z,30.14
2022-08-11T19:54:07.910Z,29.62
2022-08-11T19:56:53.852Z,30.41
2022-08-11T19:59:41.539Z,29.89
2022-08-11T20:02:27.938Z,29.73
2022-08-11T20:05:13.741Z,30.13
2022-08-11T20:08:00.007Z,30.12
2022-08-11T20:10:46.546Z,30.44
2022-08-11T20:13:32.858Z,30.00
2022-08-11T20:16:19.207Z,30.20
2022-08-11T20:19:05.712Z,29.90
2022-08-11T20:21:53.108Z,30.19
2022-08-11T20:24:40.074Z,30.33
2022-08-11T20:27:27.079Z,30.14
2022-08-11T20:30:15.071Z,30.06
2022-08-11T20:33:01.043Z,29.86
2022-08-11T20:35:47.509Z,29.79
2022-08-11T20:38:34.089Z,29.80
2022-08-11T20:41:21.969Z,30.18
2022-08-11T20:44:09.848Z,29.87
2022-08-11T20:46:59.883Z,29.83
2022-08-11T20:52:53.289Z,30.22
2022-08-11T20:55:51.275Z,30.33
2022-08-11T20:59:13.839Z,29.90
2022-08-11T21:01:54.909Z,30.01
2022-08-11T21:04:54.427Z,29.89
2022-08-11T21:07:42.199Z,30.29
2022-08-11T21:10:29.121Z,29.84
2022-08-11T21:13:26.140Z,29.73
2022-08-11T21:16:26.049Z,29.84
2022-08-11T21:19:19.222Z,29.98
2022-08-11T21:22:27.802Z,30.41
2022-08-11T21:25:16.423Z,30.64
2022-08-11T21:28:02.869Z,30.19
2022-08-11T21:30:49.657Z,30.36
2022-08-11T21:33:36.988Z,30.51
2022-08-11T21:36:24.441Z,30.13
2022-08-11T21:39:10.725Z,30.25
2022-08-11T21:41:57.735Z,30.52
2022-08-11T21:44:45.113Z,29.96
2022-08-11T21:47:43.537Z,30.32
2022-08-11T21:50:30.689Z,30.46
2022-08-11T21:53:16.805Z,30.19
2022-08-11T21:56:03.675Z,30.40
2022-08-11T21:58:51.160Z,30.39
2022-08-11T22:01:37.683Z,30.14
2022-08-11T22:04:24.012Z,29.84
2022-08-11T22:07:10.284Z,29.97
2022-08-11T22:09:56.455Z,29.82
2022-08-11T22:12:45.276Z,30.00
2022-08-11T22:15:31.732Z,30.21
2022-08-11T22:18:19.471Z,30.32
2022-08-11T22:21:05.882Z,30.14
2022-08-11T22:23:55.141Z,29.90
2022-08-11T22:26:41.945Z,29.86
2022-08-11T22:29:42.325Z,29.75
2022-08-11T22:32:37.932Z,29.90
2022-08-11T22:35:24.798Z,29.74
2022-08-11T22:38:16.046Z,29.86
2022-08-11T22:41:02.606Z,29.63
2022-08-11T22:43:49.462Z,29.93
2022-08-11T22:46:35.737Z,29.97
2022-08-11T22:49:21.857Z,29.86
2022-08-11T22:52:09.122Z,29.99
2022-08-11T22:54:55.755Z,30.15
2022-08-11T22:58:00.862Z,30.15
2022-08-11T23:00:47.425Z,29.92
2022-08-11T23:03:37.563Z,29.95
2022-08-11T23:06:25.605Z,29.90
2022-08-11T23:09:11.905Z,29.64
2022-08-11T23:12:06.565Z,29.72
2022-08-11T23:14:57.921Z,29.85
2022-08-11T23:17:44.871Z,29.96
2022-08-11T23:20:36.248Z,29.90
2022-08-11T23:23:26.210Z,29.97
2022-08-11T23:26:13.360Z,29.23
2022-08-11T23:29:05.406Z,29.87
2022-08-11T23:31:53.966Z,30.00
2022-08-11T23:35:03.599Z,30.28
2022-08-11T23:37:47.238Z,30.15
2022-08-11T23:40:33.296Z,30.51
2022-08-11T23:43:19.602Z,30.73
2022-08-11T23:46:05.192Z,30.70
2022-08-11T23:48:51.687Z,30.80
2022-08-11T23:51:41.214Z,30.29
2022-08-11T23:54:28.257Z,30.20
2022-08-11T23:57:14.111Z,30.71
